createdAt,value
2023-05-03T01:15:46.860Z,12.90
2023-05-03T05:52:13.532Z,12.10
2023-05-03T05:56:42.503Z,12.20
2023-05-03T06:00:55.835Z,12.20
2023-05-03T06:18:16.874Z,12.50
2023-05-03T06:36:47.606Z,12.90
2023-05-03T06:50:50.260Z,13.30
2023-05-03T07:14:25.977Z,13.90
2023-05-03T07:18:55.571Z,14.10
2023-05-03T07:23:15.591Z,14.20
2023-05-03T07:27:44.622Z,14.50
2023-05-03T07:31:56.920Z,14.60
2023-05-03T07:59:28.181Z,15.20
2023-05-03T08:04:06.500Z,15.20
2023-05-03T08:08:42.949Z,15.30
2023-05-03T08:17:14.964Z,15.40
2023-05-03T08:21:54.805Z,15.60
2023-05-03T08:26:08.744Z,15.90
2023-05-03T08:30:20.217Z,16.30
2023-05-03T08:34:30.780Z,16.60
2023-05-03T08:38:43.253Z,16.70
2023-05-03T08:42:52.398Z,17.00
2023-05-03T08:47:01.964Z,17.30
2023-05-03T08:51:13.038Z,17.60
2023-05-03T08:55:27.924Z,17.80
2023-05-03T09:00:03.769Z,18.10
2023-05-03T09:04:15.631Z,18.10
2023-05-03T09:08:25.021Z,18.10
2023-05-03T09:12:41.775Z,18.30
2023-05-03T09:16:51.382Z,18.60
2023-05-03T09:21:00.617Z,18.80
2023-05-03T09:25:12.462Z,19.10
2023-05-03T10:37:46.423Z,20.20
2023-05-03T11:17:34.877Z,20.80
2023-05-03T11:36:01.807Z,20.70
2023-05-03T11:50:01.125Z,20.90
2023-05-03T11:54:25.148Z,21.20
2023-05-03T12:03:31.189Z,21.70
2023-05-03T12:08:13.391Z,21.80
2023-05-03T12:12:42.428Z,21.90
2023-05-03T12:17:16.067Z,22.40
2023-05-03T12:21:33.264Z,22.60
2023-05-03T12:25:49.329Z,23.00
2023-05-03T12:30:03.485Z,23.10
2023-05-03T12:34:51.939Z,23.20
2023-05-03T12:39:27.339Z,23.10
2023-05-03T12:58:43.181Z,22.90
2023-05-03T13:08:09.789Z,23.40
2023-05-03T13:17:25.026Z,22.70
2023-05-03T13:21:34.931Z,22.60
2023-05-03T13:25:48.798Z,22.70
2023-05-03T13:29:58.126Z,22.90
2023-05-03T13:34:07.612Z,23.10
2023-05-03T13:38:16.867Z,23.00
2023-05-03T13:42:43.527Z,22.90
2023-05-03T13:47:32.835Z,22.80
2023-05-03T13:51:51.432Z,22.90
2023-05-03T14:01:05.861Z,22.90
2023-05-03T14:05:20.619Z,22.90
2023-05-03T14:18:12.568Z,23.40
2023-05-03T14:22:21.855Z,23.60
2023-05-03T14:26:31.251Z,23.50
2023-05-03T14:30:40.756Z,23.30
2023-05-03T14:34:51.410Z,23.30
2023-05-03T14:39:00.502Z,23.10
2023-05-03T14:43:09.579Z,23.40
2023-05-03T14:47:18.877Z,23.60
2023-05-03T14:51:30.685Z,23.50
2023-05-03T14:55:39.917Z,23.30
2023-05-03T14:59:49.583Z,23.00
2023-05-03T15:03:58.691Z,22.90
2023-05-03T15:13:25.029Z,23.20
2023-05-03T15:17:38.473Z,23.50
2023-05-03T15:21:49.022Z,23.60
2023-05-03T15:26:00.648Z,23.50
2023-05-03T15:30:13.362Z,23.30
2023-05-03T15:34:25.762Z,23.10
2023-05-03T15:38:35.676Z,23.00
2023-05-03T15:42:48.680Z,22.80
2023-05-03T16:10:56.182Z,22.10
